createdAt,value
2023-04-27T00:00:11.391Z,70.15
2023-04-27T00:02:40.039Z,70.46
2023-04-27T00:05:11.714Z,70.62
2023-04-27T00:07:40.344Z,70.73
2023-04-27T00:10:10.388Z,71.21
2023-04-27T00:12:38.861Z,72.22
2023-04-27T00:15:09.030Z,71.95
2023-04-27T00:17:37.631Z,72.28
2023-04-27T00:20:08.881Z,72.66
2023-04-27T00:22:38.889Z,72.64
2023-04-27T00:25:08.206Z,72.91
2023-04-27T00:27:36.618Z,71.98
2023-04-27T00:30:09.681Z,71.74
2023-04-27T00:32:38.158Z,71.44
2023-04-27T00:35:07.642Z,71.09
2023-04-27T00:37:36.154Z,71.90
2023-04-27T00:40:09.043Z,71.06
2023-04-27T00:42:37.635Z,70.98
2023-04-27T00:45:07.672Z,70.82
2023-04-27T00:47:36.698Z,70.66
2023-04-27T00:50:08.617Z,70.35
2023-04-27T00:52:38.222Z,70.28
2023-04-27T00:55:09.900Z,70.06
2023-04-27T00:57:39.099Z,70.25
2023-04-27T01:00:10.929Z,69.90
2023-04-27T01:02:40.232Z,70.40
2023-04-27T01:05:10.065Z,69.98
2023-04-27T01:07:40.108Z,70.19
2023-04-27T01:10:11.182Z,70.46
2023-04-27T01:12:39.617Z,70.35
2023-04-27T01:15:10.245Z,70.47
2023-04-27T01:17:41.863Z,69.99
2023-04-27T01:20:11.542Z,70.43
2023-04-27T01:22:40.348Z,70.70
2023-04-27T01:25:10.986Z,70.52
2023-04-27T01:27:39.398Z,70.66
2023-04-27T01:30:09.509Z,70.42
2023-04-27T01:32:39.393Z,70.14
2023-04-27T01:35:08.862Z,70.97
2023-04-27T01:37:37.580Z,71.65
2023-04-27T01:40:07.684Z,71.32
2023-04-27T01:42:38.332Z,71.25
2023-04-27T01:45:12.642Z,71.56
2023-04-27T01:47:41.283Z,71.71
2023-04-27T01:50:10.777Z,72.60
2023-04-27T01:52:41.129Z,72.25
2023-04-27T01:55:10.269Z,72.46
2023-04-27T01:57:40.641Z,72.26
2023-04-27T02:00:10.943Z,72.05
2023-04-27T02:02:57.361Z,71.61
2023-04-27T02:05:25.961Z,71.79
2023-04-27T02:07:55.105Z,71.52
2023-04-27T02:10:24.601Z,71.59
2023-04-27T02:12:58.453Z,71.13
2023-04-27T02:15:28.484Z,71.61
2023-04-27T02:17:57.399Z,71.55
2023-04-27T02:20:26.105Z,72.09
2023-04-27T02:22:55.489Z,71.96
2023-04-27T02:25:27.696Z,72.10
2023-04-27T02:27:58.154Z,72.04
2023-04-27T02:30:27.246Z,72.44
2023-04-27T02:33:00.928Z,71.99
2023-04-27T02:35:29.526Z,72.81
2023-04-27T02:38:01.278Z,72.69
2023-04-27T02:40:29.718Z,72.65
2023-04-27T02:43:00.735Z,72.50
2023-04-27T02:45:29.764Z,72.58
2023-04-27T02:47:59.886Z,72.55
2023-04-27T02:50:28.625Z,72.59
2023-04-27T02:52:57.650Z,73.06
2023-04-27T02:55:26.029Z,72.21
2023-04-27T02:57:54.390Z,72.49
2023-04-27T03:00:24.384Z,72.62
2023-04-27T03:02:52.881Z,71.97
2023-04-27T03:05:21.766Z,72.20
2023-04-27T03:07:50.135Z,71.68
2023-04-27T03:10:18.717Z,72.58
2023-04-27T03:12:47.088Z,72.61
2023-04-27T03:15:15.488Z,73.31
2023-04-27T03:17:46.094Z,73.33
2023-04-27T03:20:15.246Z,72.69
2023-04-27T03:22:45.775Z,73.18
2023-04-27T03:25:14.590Z,72.84
2023-04-27T03:27:43.595Z,72.73
2023-04-27T03:30:14.671Z,72.40
2023-04-27T03:32:46.347Z,71.99
2023-04-27T03:35:16.218Z,72.08
2023-04-27T03:37:47.123Z,72.66
2023-04-27T03:40:16.111Z,72.19
2023-04-27T03:42:44.416Z,72.52
2023-04-27T03:45:13.200Z,72.69
2023-04-27T03:47:41.908Z,73.05
2023-04-27T03:50:12.258Z,72.92
2023-04-27T03:52:40.861Z,73.26
2023-04-27T03:55:10.143Z,73.42
2023-04-27T03:57:41.629Z,72.99
2023-04-27T04:00:12.940Z,73.19
2023-04-27T04:02:41.451Z,73.19
2023-04-27T04:05:14.886Z,72.89
2023-04-27T04:07:43.731Z,72.96
2023-04-27T04:10:13.691Z,73.42
2023-04-27T04:12:42.877Z,73.59
2023-04-27T04:15:12.020Z,74.56
2023-04-27T04:17:40.385Z,74.52
2023-04-27T04:20:15.429Z,74.64
2023-04-27T04:22:44.387Z,75.20
2023-04-27T04:25:13.989Z,74.63
2023-04-27T04:27:43.556Z,74.30
2023-04-27T04:30:13.554Z,73.87
2023-04-27T04:32:42.693Z,74.00
2023-04-27T04:35:13.087Z,74.18
2023-04-27T04:37:41.640Z,74.50
2023-04-27T04:40:11.766Z,74.06
2023-04-27T04:42:42.302Z,74.25
2023-04-27T04:45:11.701Z,74.57
2023-04-27T04:47:40.742Z,74.52
2023-04-27T04:50:10.695Z,74.64
2023-04-27T04:52:40.634Z,74.60
2023-04-27T04:55:10.535Z,75.00
2023-04-27T04:57:38.933Z,74.41
2023-04-27T05:00:12.007Z,74.52
2023-04-27T05:02:41.140Z,74.17
2023-04-27T05:05:12.757Z,74.31
2023-04-27T05:07:42.366Z,74.12
2023-04-27T05:10:10.998Z,73.57
2023-04-27T05:12:39.464Z,73.55
2023-04-27T05:15:09.112Z,73.86
2023-04-27T05:17:37.350Z,73.60
2023-04-27T05:20:07.917Z,73.62
2023-04-27T05:22:36.762Z,73.16
2023-04-27T05:25:07.829Z,73.06
2023-04-27T05:27:36.319Z,73.20
2023-04-27T05:30:05.142Z,73.44
2023-04-27T05:32:37.376Z,72.87
2023-04-27T05:35:06.582Z,72.74
2023-04-27T05:37:34.970Z,72.72
2023-04-27T05:40:05.725Z,73.67
2023-04-27T05:42:34.427Z,73.79
2023-04-27T05:45:03.684Z,73.77
2023-04-27T05:47:32.331Z,73.43
2023-04-27T05:50:00.791Z,72.25
2023-04-27T05:52:31.074Z,70.34
2023-04-27T05:55:01.630Z,69.66
2023-04-27T05:57:31.788Z,68.79
2023-04-27T06:00:00.405Z,68.35
2023-04-27T06:02:32.678Z,68.14
2023-04-27T06:05:01.114Z,68.99
2023-04-27T06:07:29.689Z,69.58
2023-04-27T06:09:58.240Z,69.19
2023-04-27T06:12:26.576Z,69.48
2023-04-27T06:14:56.495Z,70.46
2023-04-27T06:17:25.068Z,69.27
2023-04-27T06:19:53.559Z,69.24
2023-04-27T06:22:21.961Z,69.18
2023-04-27T06:24:50.350Z,68.48
2023-04-27T06:27:20.726Z,68.09
2023-04-27T06:29:49.229Z,67.32
2023-04-27T06:32:24.934Z,64.94
2023-04-27T06:34:53.575Z,63.45
2023-04-27T06:37:23.114Z,63.16
2023-04-27T06:39:51.868Z,63.57
2023-04-27T06:42:20.225Z,63.64
2023-04-27T06:44:58.455Z,64.21
2023-04-27T06:47:28.539Z,64.00
2023-04-27T06:49:56.847Z,63.69
2023-04-27T06:52:25.140Z,63.99
2023-04-27T06:54:53.466Z,64.03
2023-04-27T06:57:22.412Z,63.87
2023-04-27T06:59:50.807Z,64.26
2023-04-27T07:02:24.331Z,64.23
2023-04-27T07:04:57.369Z,63.94
2023-04-27T07:07:25.914Z,62.97
2023-04-27T07:09:54.381Z,62.76
2023-04-27T07:12:22.775Z,62.66
2023-04-27T07:14:51.715Z,61.77
2023-04-27T07:17:20.248Z,62.69
2023-04-27T07:19:49.017Z,62.32
2023-04-27T07:22:20.032Z,62.09
2023-04-27T07:24:48.553Z,61.69
2023-04-27T07:27:19.492Z,61.42
2023-04-27T07:29:50.333Z,60.46
2023-04-27T07:32:18.938Z,60.60
2023-04-27T07:34:53.301Z,60.04
2023-04-27T07:37:24.284Z,60.05
2023-04-27T07:39:53.196Z,58.76
2023-04-27T07:42:23.664Z,59.28
2023-04-27T07:44:52.433Z,58.66
2023-04-27T07:47:21.942Z,57.97
2023-04-27T07:49:50.497Z,57.29
2023-04-27T07:52:18.918Z,57.02
2023-04-27T07:54:48.894Z,56.26
2023-04-27T07:57:17.240Z,55.04
2023-04-27T07:59:45.890Z,54.39
2023-04-27T08:02:20.453Z,53.65
2023-04-27T08:04:49.804Z,51.60
2023-04-27T08:07:19.739Z,49.77
2023-04-27T08:09:53.424Z,48.34
2023-04-27T08:12:21.819Z,47.27
2023-04-27T08:14:50.701Z,47.10
2023-04-27T08:17:19.490Z,45.18
2023-04-27T08:19:48.025Z,44.50
2023-04-27T08:22:16.605Z,44.02
2023-04-27T08:24:45.166Z,43.85
2023-04-27T08:27:15.693Z,43.18
2023-04-27T08:29:48.285Z,41.47
2023-04-27T08:32:17.563Z,41.93
2023-04-27T08:34:46.552Z,40.44
2023-04-27T08:37:14.954Z,41.03
2023-04-27T08:39:43.526Z,40.09
2023-04-27T08:42:14.374Z,40.34
2023-04-27T08:44:45.338Z,38.99
2023-04-27T08:47:16.812Z,39.72
2023-04-27T08:49:45.436Z,39.67
2023-04-27T08:52:16.400Z,39.63
2023-04-27T08:54:45.314Z,39.88
2023-04-27T08:57:16.408Z,38.68
2023-04-27T08:59:45.452Z,38.30
2023-04-27T09:02:21.222Z,39.54
2023-04-27T09:04:51.072Z,39.32
2023-04-27T09:07:20.717Z,38.35
2023-04-27T09:09:49.718Z,38.23
2023-04-27T09:12:22.015Z,36.78
2023-04-27T09:15:00.424Z,39.18
2023-04-27T09:17:30.451Z,38.95
2023-04-27T09:20:09.120Z,35.13
2023-04-27T09:22:49.662Z,35.62
2023-04-27T09:25:26.426Z,38.60
2023-04-27T09:27:58.272Z,37.74
2023-04-27T09:30:27.802Z,38.68
2023-04-27T09:32:57.952Z,36.14
2023-04-27T09:35:29.319Z,37.68
2023-04-27T09:37:58.312Z,36.53
2023-04-27T09:40:31.914Z,35.44
2023-04-27T09:43:02.584Z,35.87
2023-04-27T09:45:34.716Z,35.13
2023-04-27T09:48:03.656Z,35.76
2023-04-27T09:50:37.905Z,36.48
2023-04-27T09:53:10.712Z,34.73
2023-04-27T09:55:43.336Z,34.30
2023-04-27T09:58:51.452Z,34.28
2023-04-27T10:01:28.297Z,34.21
2023-04-27T10:04:14.617Z,34.09
2023-04-27T10:07:02.113Z,33.69
2023-04-27T10:09:43.903Z,33.71
2023-04-27T10:12:18.599Z,33.04
2023-04-27T10:14:53.687Z,34.58
2023-04-27T10:17:27.877Z,32.80
2023-04-27T10:20:02.252Z,32.59
2023-04-27T10:22:41.430Z,31.87
2023-04-27T10:25:19.954Z,32.50
2023-04-27T10:27:53.498Z,34.73
2023-04-27T10:30:26.009Z,34.23
2023-04-27T10:32:56.750Z,33.72
2023-04-27T10:35:35.230Z,33.67
2023-04-27T10:38:12.473Z,32.43
2023-04-27T10:40:40.956Z,32.49
2023-04-27T10:43:14.305Z,34.02
2023-04-27T10:45:46.015Z,31.37
2023-04-27T10:48:18.072Z,33.71
2023-04-27T10:50:47.058Z,34.36
2023-04-27T10:53:16.583Z,34.37
2023-04-27T10:55:45.065Z,32.62
2023-04-27T10:58:13.617Z,34.47
2023-04-27T11:00:45.003Z,34.60
2023-04-27T11:03:18.210Z,29.96
2023-04-27T11:05:49.265Z,31.57
2023-04-27T11:08:21.002Z,33.28
2023-04-27T11:10:51.434Z,32.73
2023-04-27T11:13:22.254Z,33.31
2023-04-27T11:15:54.795Z,31.71
2023-04-27T11:18:26.075Z,31.56
2023-04-27T11:21:06.752Z,32.67
2023-04-27T11:23:38.003Z,32.91
2023-04-27T11:26:12.076Z,31.06
2023-04-27T11:28:40.583Z,32.64
2023-04-27T11:31:11.661Z,32.36
2023-04-27T11:33:41.058Z,32.61
2023-04-27T11:36:18.520Z,31.58
2023-04-27T11:38:50.438Z,32.87
2023-04-27T11:41:19.549Z,31.15
2023-04-27T11:43:49.595Z,31.77
2023-04-27T11:46:23.267Z,31.88
2023-04-27T11:48:51.929Z,33.05
2023-04-27T11:51:20.513Z,31.89
2023-04-27T11:53:51.296Z,30.34
2023-04-27T11:56:19.697Z,30.50
2023-04-27T11:58:48.437Z,31.35
2023-04-27T12:01:24.801Z,29.97
2023-04-27T12:04:05.445Z,32.90
2023-04-27T12:06:34.392Z,31.86
2023-04-27T12:09:07.287Z,31.81
2023-04-27T12:11:35.839Z,33.62
2023-04-27T12:14:04.997Z,31.90
2023-04-27T12:16:37.629Z,33.23
2023-04-27T12:19:08.202Z,33.26
2023-04-27T12:21:36.545Z,31.37
2023-04-27T12:24:05.770Z,32.44
2023-04-27T12:26:34.005Z,31.95
2023-04-27T12:29:04.372Z,29.90
2023-04-27T12:31:32.919Z,31.24
2023-04-27T12:34:01.493Z,30.75
2023-04-27T12:36:31.932Z,28.44
2023-04-27T12:39:13.801Z,29.80
2023-04-27T12:41:42.376Z,30.27
2023-04-27T12:44:11.226Z,29.93
2023-04-27T12:46:39.787Z,29.60
2023-04-27T12:49:08.754Z,30.56
2023-04-27T12:51:38.727Z,29.53
2023-04-27T12:54:10.970Z,29.17
2023-04-27T12:56:39.578Z,29.58
2023-04-27T12:59:07.961Z,27.75
2023-04-27T13:01:39.364Z,27.67
2023-04-27T13:04:09.275Z,27.89
2023-04-27T13:06:39.338Z,28.18
2023-04-27T13:09:07.856Z,27.43
2023-04-27T13:11:36.276Z,26.45
2023-04-27T13:14:07.432Z,27.65
2023-04-27T13:16:37.075Z,28.30
2023-04-27T13:19:05.658Z,27.94
2023-04-27T13:21:34.334Z,29.16
2023-04-27T13:24:08.538Z,28.72
2023-04-27T13:26:36.881Z,28.10
2023-04-27T13:29:05.473Z,27.77
2023-04-27T13:31:34.263Z,28.97
2023-04-27T13:34:07.074Z,27.89
2023-04-27T13:36:38.212Z,27.08
2023-04-27T13:39:08.973Z,28.16
2023-04-27T13:41:37.436Z,26.50
2023-04-27T13:44:05.854Z,27.98
2023-04-27T13:46:35.301Z,26.98
2023-04-27T13:49:03.770Z,27.92
2023-04-27T13:51:40.414Z,26.90
2023-04-27T13:54:10.331Z,27.86
2023-04-27T13:56:38.812Z,28.19
2023-04-27T13:59:09.430Z,28.63
2023-04-27T14:01:40.250Z,27.73
2023-04-27T14:04:11.009Z,27.15
2023-04-27T14:06:39.553Z,28.12
2023-04-27T14:09:09.779Z,27.61
2023-04-27T14:11:52.336Z,27.91
2023-04-27T14:14:24.633Z,27.18
2023-04-27T14:16:53.918Z,28.60
2023-04-27T14:19:22.307Z,27.55
2023-04-27T14:21:51.313Z,26.32
2023-04-27T14:24:21.161Z,27.76
2023-04-27T14:26:51.222Z,27.48
2023-04-27T14:29:19.843Z,27.35
2023-04-27T14:31:48.618Z,27.99
2023-04-27T14:34:18.442Z,28.22
2023-04-27T14:36:48.026Z,27.78
2023-04-27T14:39:17.016Z,27.67
2023-04-27T14:41:46.781Z,27.03
2023-04-27T14:44:18.234Z,28.44
2023-04-27T14:46:46.752Z,27.43
2023-04-27T14:49:15.397Z,27.25
2023-04-27T14:51:47.019Z,27.19
2023-04-27T14:54:17.882Z,26.70
2023-04-27T14:56:47.648Z,26.86
2023-04-27T14:59:22.238Z,26.95
2023-04-27T15:01:50.833Z,27.35
2023-04-27T15:04:19.285Z,27.56
2023-04-27T15:06:51.060Z,28.50
2023-04-27T15:09:19.569Z,28.37
2023-04-27T15:11:52.596Z,28.50
2023-04-27T15:14:21.241Z,29.06
2023-04-27T15:16:50.655Z,28.45
2023-04-27T15:19:19.211Z,27.88
2023-04-27T15:21:48.618Z,29.08
2023-04-27T15:24:19.686Z,29.12
2023-04-27T15:26:49.459Z,28.99
2023-04-27T15:29:20.257Z,28.56
2023-04-27T15:31:49.013Z,28.11
2023-04-27T15:34:17.311Z,28.34
2023-04-27T15:36:45.696Z,28.46
2023-04-27T15:39:14.293Z,29.44
2023-04-27T15:41:45.765Z,29.23
2023-04-27T15:44:15.503Z,28.96
2023-04-27T15:46:47.063Z,30.00
2023-04-27T15:49:17.815Z,30.02
2023-04-27T15:51:49.205Z,30.79
2023-04-27T15:54:19.277Z,30.54
2023-04-27T15:56:50.113Z,30.18
2023-04-27T15:59:21.963Z,30.44
2023-04-27T16:01:52.941Z,30.49
2023-04-27T16:04:24.283Z,31.08
2023-04-27T16:06:55.267Z,30.64
2023-04-27T16:09:26.575Z,31.11
2023-04-27T16:11:57.330Z,29.64
2023-04-27T16:14:26.999Z,31.83
2023-04-27T16:17:00.560Z,32.22
2023-04-27T16:19:29.221Z,30.67
2023-04-27T16:21:57.737Z,31.41
2023-04-27T16:24:29.391Z,32.66
2023-04-27T16:26:57.912Z,33.82
2023-04-27T16:29:27.455Z,33.48
2023-04-27T16:31:55.868Z,34.60
2023-04-27T16:34:26.525Z,34.87
2023-04-27T16:36:56.850Z,34.82
2023-04-27T16:39:27.645Z,33.93
2023-04-27T16:41:55.938Z,33.30
2023-04-27T16:44:24.547Z,34.02
2023-04-27T16:48:00.998Z,34.37
2023-04-27T16:49:47.669Z,34.56
2023-04-27T16:52:17.170Z,34.20
2023-04-27T16:54:48.684Z,35.05
2023-04-27T16:57:17.466Z,35.89
2023-04-27T16:59:45.891Z,37.19
2023-04-27T17:02:25.202Z,37.29
2023-04-27T17:04:55.980Z,37.57
2023-04-27T17:07:28.742Z,37.86
2023-04-27T17:09:57.249Z,37.60
2023-04-27T17:12:28.603Z,37.13
2023-04-27T17:15:00.908Z,36.78
2023-04-27T17:17:35.127Z,36.90
2023-04-27T17:20:10.351Z,37.31
2023-04-27T17:22:40.200Z,38.17
2023-04-27T17:25:09.770Z,38.34
2023-04-27T17:27:38.660Z,38.29
2023-04-27T17:30:09.615Z,37.56
2023-04-27T17:32:48.804Z,38.59
2023-04-27T17:35:20.572Z,38.57
2023-04-27T17:38:01.261Z,39.15
2023-04-27T17:40:34.985Z,39.68
2023-04-27T17:43:03.422Z,39.93
2023-04-27T17:45:32.148Z,40.31
2023-04-27T17:48:02.097Z,40.63
2023-04-27T17:50:34.631Z,40.71
2023-04-27T17:53:03.266Z,40.99
2023-04-27T17:55:31.708Z,41.35
2023-04-27T17:58:00.326Z,41.61
2023-04-27T18:00:28.678Z,42.03
2023-04-27T18:02:57.424Z,42.84
2023-04-27T18:05:27.971Z,43.27
2023-04-27T18:07:56.366Z,42.86
2023-04-27T18:10:24.939Z,43.07
2023-04-27T18:12:53.460Z,43.22
2023-04-27T18:15:21.931Z,43.25
2023-04-27T18:17:50.357Z,43.86
2023-04-27T18:20:19.212Z,43.72
2023-04-27T18:22:49.316Z,44.36
2023-04-27T18:25:17.836Z,44.09
2023-04-27T18:27:48.651Z,44.60
2023-04-27T18:30:20.217Z,44.98
2023-04-27T18:32:48.948Z,44.89
2023-04-27T18:35:17.576Z,45.37
2023-04-27T18:37:48.336Z,45.62
2023-04-27T18:40:21.440Z,46.51
2023-04-27T18:42:51.671Z,46.79
2023-04-27T18:45:20.345Z,46.73
2023-04-27T18:47:51.903Z,46.67
2023-04-27T18:50:21.005Z,46.79
2023-04-27T18:52:52.232Z,46.64
2023-04-27T18:55:22.760Z,47.09
2023-04-27T18:57:51.320Z,47.09
2023-04-27T19:00:20.233Z,47.87
2023-04-27T19:02:52.312Z,48.21
2023-04-27T19:05:21.245Z,48.34
2023-04-27T19:07:49.696Z,48.50
2023-04-27T19:10:18.173Z,48.38
2023-04-27T19:12:48.176Z,48.94
2023-04-27T19:15:16.889Z,49.39
2023-04-27T19:17:47.183Z,49.48
2023-04-27T19:20:17.503Z,49.61
2023-04-27T19:22:48.022Z,49.53
2023-04-27T19:25:16.816Z,49.84
2023-04-27T19:27:45.608Z,50.29
2023-04-27T19:30:16.403Z,50.52
2023-04-27T19:32:47.984Z,50.39
2023-04-27T19:35:16.707Z,50.48
2023-04-27T19:37:45.105Z,50.62
2023-04-27T19:40:16.517Z,51.14
2023-04-27T19:42:45.216Z,51.27
2023-04-27T19:45:18.624Z,51.29
2023-04-27T19:47:48.642Z,51.12
2023-04-27T19:50:18.687Z,51.22
2023-04-27T19:52:47.095Z,51.21
2023-04-27T19:55:15.638Z,51.05
2023-04-27T19:57:44.683Z,51.30
2023-04-27T20:00:21.192Z,51.28
2023-04-27T20:02:58.899Z,51.34
2023-04-27T20:05:29.158Z,51.59
2023-04-27T20:07:57.890Z,51.19
2023-04-27T20:10:26.224Z,51.08
2023-04-27T20:12:57.505Z,51.19
2023-04-27T20:15:29.430Z,51.62
2023-04-27T20:18:01.666Z,51.41
2023-04-27T20:20:30.109Z,52.23
2023-04-27T20:22:58.575Z,52.06
2023-04-27T20:25:27.239Z,52.64
2023-04-27T20:27:55.596Z,53.07
2023-04-27T20:30:24.088Z,53.40
2023-04-27T20:32:55.247Z,53.67
2023-04-27T20:35:24.291Z,54.32
2023-04-27T20:37:53.980Z,53.89
2023-04-27T20:40:22.376Z,54.07
2023-04-27T20:42:51.806Z,53.60
2023-04-27T20:45:23.121Z,53.64
2023-04-27T20:47:53.307Z,53.85
2023-04-27T20:50:23.138Z,54.46
2023-04-27T20:52:52.257Z,54.24
2023-04-27T20:55:20.677Z,54.71
2023-04-27T20:57:50.206Z,55.64
2023-04-27T21:00:24.276Z,55.52
2023-04-27T21:02:54.344Z,55.43
2023-04-27T21:05:23.650Z,55.52
2023-04-27T21:07:52.344Z,55.04
2023-04-27T21:10:20.595Z,55.24
2023-04-27T21:12:48.985Z,55.34
2023-04-27T21:15:17.469Z,55.05
2023-04-27T21:17:46.099Z,55.04
2023-04-27T21:20:17.708Z,54.67
2023-04-27T21:22:46.408Z,54.45
2023-04-27T21:25:14.792Z,54.58
2023-04-27T21:27:45.982Z,54.60
2023-04-27T21:30:18.242Z,54.40
2023-04-27T21:32:46.672Z,54.29
2023-04-27T21:35:16.625Z,54.06
2023-04-27T21:37:44.992Z,54.15
2023-04-27T21:40:14.301Z,54.12
2023-04-27T21:42:42.694Z,54.41
2023-04-27T21:45:14.491Z,53.55
2023-04-27T21:47:42.887Z,53.77
2023-04-27T21:50:17.343Z,53.61
2023-04-27T21:52:45.959Z,53.62
2023-04-27T21:55:14.538Z,53.80
2023-04-27T21:57:42.801Z,53.84
2023-04-27T22:00:14.662Z,54.25
2023-04-27T22:02:49.812Z,54.38
2023-04-27T22:05:21.100Z,54.52
2023-04-27T22:07:51.616Z,54.54
2023-04-27T22:10:20.115Z,54.39
2023-04-27T22:12:48.523Z,54.70
2023-04-27T22:15:16.933Z,53.92
2023-04-27T22:17:45.596Z,54.20
2023-04-27T22:20:14.609Z,53.24
2023-04-27T22:22:47.814Z,52.19
2023-04-27T22:25:16.181Z,51.56
2023-04-27T22:27:46.849Z,51.87
2023-04-27T22:30:18.298Z,51.51
2023-04-27T22:32:46.747Z,52.09
2023-04-27T22:35:26.473Z,51.59
2023-04-27T22:38:01.521Z,51.90
2023-04-27T22:40:30.034Z,52.42
2023-04-27T22:42:58.543Z,52.79
2023-04-27T22:45:26.906Z,53.16
2023-04-27T22:47:55.391Z,54.22
2023-04-27T22:50:25.572Z,55.01
2023-04-27T22:52:53.948Z,55.18
2023-04-27T22:55:26.121Z,56.28
2023-04-27T22:57:54.375Z,56.58
2023-04-27T23:00:22.946Z,56.69
2023-04-27T23:02:56.673Z,56.03
2023-04-27T23:05:25.450Z,56.01
2023-04-27T23:07:53.747Z,56.40
2023-04-27T23:10:23.715Z,56.50
2023-04-27T23:12:54.952Z,56.64
2023-04-27T23:15:24.224Z,56.76
2023-04-27T23:17:58.318Z,57.26
2023-04-27T23:20:28.726Z,57.62
2023-04-27T23:22:57.665Z,57.47
2023-04-27T23:25:28.933Z,57.59
2023-04-27T23:27:57.167Z,57.83
2023-04-27T23:30:26.098Z,57.67
2023-04-27T23:32:56.528Z,57.65
2023-04-27T23:35:25.021Z,57.61
2023-04-27T23:37:53.421Z,57.88
2023-04-27T23:40:21.814Z,58.32
2023-04-27T23:42:52.626Z,58.90
2023-04-27T23:45:21.279Z,59.35
2023-04-27T23:47:49.780Z,60.06
2023-04-27T23:50:18.444Z,60.11
2023-04-27T23:52:46.692Z,61.05
2023-04-27T23:55:15.093Z,61.40
2023-04-27T23:57:44.477Z,61.42
